createdAt,value
2022-11-10T00:00:50.939Z,100146.56
2022-11-10T00:01:44.940Z,100148.00
2022-11-10T00:02:38.935Z,100166.47
2022-11-10T00:03:34.913Z,100155.25
2022-11-10T00:04:29.015Z,100158.53
2022-11-10T00:05:23.896Z,100156.81
2022-11-10T00:06:15.964Z,100146.09
2022-11-10T00:06:50.043Z,100163.31
2022-11-10T00:07:36.920Z,100153.28
2022-11-10T00:08:16.974Z,100164.47
2022-11-10T00:09:03.912Z,100153.28
2022-11-10T00:09:37.933Z,100174.13
2022-11-10T00:10:24.881Z,100169.25
2022-11-10T00:10:59.013Z,100169.41
2022-11-10T00:11:39.934Z,100165.69
2022-11-10T00:12:19.952Z,100172.19
2022-11-10T00:13:01.102Z,100178.88
2022-11-10T00:14:12.908Z,100149.81
2022-11-10T00:15:24.891Z,100165.56
2022-11-10T00:16:37.894Z,100167.78
2022-11-10T00:17:18.911Z,100167.25
2022-11-10T00:17:59.001Z,100183.22
2022-11-10T00:18:38.879Z,100175.81
2022-11-10T00:19:18.951Z,100159.56
2022-11-10T00:19:59.895Z,100170.19
2022-11-10T00:20:40.003Z,100176.97
2022-11-10T00:21:22.949Z,100176.66
2022-11-10T00:22:03.978Z,100169.56
2022-11-10T00:22:39.139Z,100184.13
2022-11-10T00:23:25.905Z,100169.66
2022-11-10T00:24:00.000Z,100184.53
2022-11-10T00:24:47.874Z,100177.75
2022-11-10T00:25:21.913Z,100187.69
2022-11-10T00:26:09.909Z,100180.06
2022-11-10T00:26:43.978Z,100175.66
2022-11-10T00:27:23.902Z,100183.47
2022-11-10T00:28:05.995Z,100168.78
2022-11-10T00:28:46.891Z,100164.56
2022-11-10T00:29:26.965Z,100178.91
2022-11-10T00:30:06.879Z,100168.72
2022-11-10T00:30:47.933Z,100178.91
2022-11-10T00:31:28.889Z,100175.81
2022-11-10T00:32:08.981Z,100179.22
2022-11-10T00:32:49.926Z,100177.06
2022-11-10T00:33:29.935Z,100182.38
2022-11-10T00:34:10.944Z,100181.84
2022-11-10T00:34:50.941Z,100175.59
2022-11-10T00:35:30.864Z,100187.25
2022-11-10T00:36:11.967Z,100182.97
2022-11-10T00:36:51.887Z,100178.44
2022-11-10T00:37:31.939Z,100171.88
2022-11-10T00:38:11.889Z,100182.66
2022-11-10T00:38:53.084Z,100179.50
2022-11-10T00:39:32.868Z,100187.78
2022-11-10T00:40:14.192Z,100184.69
2022-11-10T00:40:54.887Z,100186.28
2022-11-10T00:41:34.907Z,100176.72
2022-11-10T00:42:15.898Z,100176.03
2022-11-10T00:42:55.982Z,100187.38
2022-11-10T00:43:36.920Z,100179.88
2022-11-10T00:44:17.028Z,100187.59
2022-11-10T00:44:57.851Z,100190.69
2022-11-10T00:45:38.214Z,100192.13
2022-11-10T00:46:17.873Z,100193.84
2022-11-10T00:46:57.950Z,100194.66
2022-11-10T00:47:37.887Z,100186.75
2022-11-10T00:48:17.912Z,100182.59
2022-11-10T00:48:57.883Z,100181.00
2022-11-10T00:49:38.811Z,100179.03
2022-11-10T00:50:19.893Z,100174.72
2022-11-10T00:50:59.905Z,100190.94
2022-11-10T00:51:40.900Z,100196.09
2022-11-10T00:52:21.096Z,100183.84
2022-11-10T00:53:00.880Z,100184.53
2022-11-10T00:53:40.957Z,100190.41
2022-11-10T00:54:20.912Z,100192.53
2022-11-10T00:55:01.958Z,100191.78
2022-11-10T00:55:45.879Z,100202.94
2022-11-10T00:56:27.991Z,100197.50
2022-11-10T00:57:08.850Z,100190.28
2022-11-10T00:57:48.919Z,100194.41
2022-11-10T00:58:29.890Z,100194.09
2022-11-10T00:59:09.906Z,100196.09
2022-11-10T00:59:49.875Z,100194.38
2022-11-10T01:00:29.965Z,100186.28
2022-11-10T01:01:11.891Z,100193.09
2022-11-10T01:01:51.920Z,100197.19
2022-11-10T01:02:32.836Z,100199.78
2022-11-10T01:03:14.114Z,100185.38
2022-11-10T01:03:54.852Z,100193.28
2022-11-10T01:04:34.936Z,100176.97
2022-11-10T01:05:15.882Z,100194.34
2022-11-10T01:05:55.943Z,100176.09
2022-11-10T01:06:35.865Z,100197.03
2022-11-10T01:07:15.922Z,100192.31
2022-11-10T01:07:56.832Z,100193.03
2022-11-10T01:08:36.917Z,100194.66
2022-11-10T01:09:16.841Z,100199.34
2022-11-10T01:09:56.881Z,100204.28
2022-11-10T01:10:36.866Z,100196.88
2022-11-10T01:11:27.896Z,100198.75
2022-11-10T01:12:07.843Z,100192.88
2022-11-10T01:12:47.885Z,100198.75
2022-11-10T01:13:28.835Z,100186.84
2022-11-10T01:14:08.900Z,100202.53
2022-11-10T01:14:48.832Z,100194.88
2022-11-10T01:15:28.908Z,100190.84
2022-11-10T01:16:18.856Z,100192.09
2022-11-10T01:16:58.906Z,100199.56
2022-11-10T01:17:38.844Z,100207.13
2022-11-10T01:18:18.869Z,100181.91
2022-11-10T01:19:04.228Z,100193.41
2022-11-10T01:19:44.871Z,100193.56
2022-11-10T01:20:25.824Z,100210.88
2022-11-10T01:21:05.884Z,100186.13
2022-11-10T01:21:45.848Z,100200.13
2022-11-10T01:22:25.869Z,100194.72
2022-11-10T01:23:05.812Z,100204.59
2022-11-10T01:23:45.895Z,100191.47
2022-11-10T01:24:27.846Z,100204.28
2022-11-10T01:25:22.835Z,100199.19
2022-11-10T01:26:19.832Z,100207.16
2022-11-10T01:27:06.869Z,100210.41
2022-11-10T01:27:40.873Z,100205.75
2022-11-10T01:28:27.846Z,100200.84
2022-11-10T01:29:01.838Z,100189.78
2022-11-10T01:29:48.816Z,100212.56
2022-11-10T01:30:22.848Z,100186.22
2022-11-10T01:31:14.816Z,100206.63
2022-11-10T01:31:48.877Z,100210.31
2022-11-10T01:32:28.844Z,100196.63
2022-11-10T01:33:08.864Z,100211.16
2022-11-10T01:33:49.816Z,100208.34
2022-11-10T01:34:29.892Z,100209.16
2022-11-10T01:35:10.798Z,100214.94
2022-11-10T01:35:51.921Z,100208.44
2022-11-10T01:36:31.804Z,100194.88
2022-11-10T01:37:11.862Z,100216.00
2022-11-10T01:37:51.850Z,100212.75
2022-11-10T01:38:36.974Z,100208.88
2022-11-10T01:39:16.811Z,100203.75
2022-11-10T01:39:56.896Z,100195.72
2022-11-10T01:40:37.827Z,100213.38
2022-11-10T01:41:19.846Z,100217.06
2022-11-10T01:41:59.807Z,100208.25
2022-11-10T01:43:09.832Z,100207.44
2022-11-10T01:44:03.813Z,100204.00
2022-11-10T01:45:35.821Z,100217.78
2022-11-10T01:46:29.823Z,100213.63
2022-11-10T01:47:23.814Z,100217.44
2022-11-10T01:48:19.841Z,100217.44
2022-11-10T01:49:15.804Z,100213.75
2022-11-10T01:50:09.810Z,100204.00
2022-11-10T01:51:03.799Z,100216.56
2022-11-10T01:52:23.802Z,100216.97
2022-11-10T01:53:24.939Z,100208.28
2022-11-10T01:54:25.803Z,100216.97
2022-11-10T01:55:19.805Z,100221.13
2022-11-10T01:56:13.781Z,100213.03
2022-11-10T01:57:12.815Z,100210.31
2022-11-10T01:58:06.791Z,100202.94
2022-11-10T01:58:53.821Z,100197.50
2022-11-10T01:59:37.831Z,100205.19
2022-11-10T02:00:18.794Z,100214.28
2022-11-10T02:00:59.032Z,100209.88
2022-11-10T02:01:38.793Z,100201.03
2022-11-10T02:02:36.954Z,100212.31
2022-11-10T02:03:30.817Z,100215.56
2022-11-10T02:04:14.821Z,100209.63
2022-11-10T02:04:49.827Z,100216.88
2022-11-10T02:05:36.793Z,100217.31
2022-11-10T02:06:11.852Z,100205.75
2022-11-10T02:06:58.792Z,100205.66
2022-11-10T02:07:33.833Z,100209.53
2022-11-10T02:08:22.770Z,100212.38
2022-11-10T02:08:56.872Z,100216.34
2022-11-10T02:09:36.801Z,100226.91
2022-11-10T02:10:22.881Z,100226.50
2022-11-10T02:11:02.787Z,100214.94
2022-11-10T02:11:43.836Z,100218.06
2022-11-10T02:12:42.779Z,100219.50
2022-11-10T02:13:23.113Z,100223.03
2022-11-10T02:14:04.776Z,100225.44
2022-11-10T02:14:51.784Z,100217.78
2022-11-10T02:15:45.779Z,100205.28
2022-11-10T02:16:40.775Z,100220.81
2022-11-10T02:17:34.797Z,100219.50
2022-11-10T02:18:28.779Z,100218.94
2022-11-10T02:19:36.776Z,100216.38
2022-11-10T02:20:20.799Z,100223.78
2022-11-10T02:21:01.891Z,100209.88
2022-11-10T02:21:41.763Z,100214.44
2022-11-10T02:22:21.807Z,100215.00
2022-11-10T02:23:01.789Z,100211.84
2022-11-10T02:23:41.837Z,100226.09
2022-11-10T02:24:22.791Z,100230.22
2022-11-10T02:25:17.789Z,100213.00
2022-11-10T02:25:57.779Z,100224.66
2022-11-10T02:26:38.835Z,100214.22
2022-11-10T02:27:18.761Z,100220.94
2022-11-10T02:27:58.805Z,100207.88
2022-11-10T02:28:43.746Z,100227.81
2022-11-10T02:29:23.808Z,100217.97
2022-11-10T02:30:04.772Z,100220.41
2022-11-10T02:30:44.894Z,100206.41
2022-11-10T02:31:24.820Z,100197.59
2022-11-10T02:32:04.811Z,100212.97
2022-11-10T02:32:44.759Z,100224.81
2022-11-10T02:33:24.912Z,100220.69
2022-11-10T02:34:05.759Z,100230.94
2022-11-10T02:34:45.842Z,100229.22
2022-11-10T02:35:25.747Z,100231.22
2022-11-10T02:36:05.854Z,100241.78
2022-11-10T02:36:45.792Z,100245.78
2022-11-10T02:37:25.800Z,100238.31
2022-11-10T02:38:05.760Z,100225.34
2022-11-10T02:38:46.807Z,100238.91
2022-11-10T02:39:27.752Z,100228.09
2022-11-10T02:40:07.787Z,100243.44
2022-11-10T02:40:47.736Z,100244.03
2022-11-10T02:41:27.841Z,100247.19
2022-11-10T02:42:08.768Z,100238.63
2022-11-10T02:42:48.860Z,100246.31
2022-11-10T02:43:28.756Z,100241.31
2022-11-10T02:44:09.791Z,100248.69
2022-11-10T02:44:50.755Z,100246.59
2022-11-10T02:45:30.801Z,100254.69
2022-11-10T02:46:11.752Z,100256.41
2022-11-10T02:47:05.752Z,100253.84
2022-11-10T02:47:45.776Z,100246.31
2022-11-10T02:48:25.771Z,100254.00
2022-11-10T02:49:05.752Z,100257.78
2022-11-10T02:49:45.888Z,100257.00
2022-11-10T02:50:26.753Z,100247.44
2022-11-10T02:51:06.785Z,100247.34
2022-11-10T02:51:46.750Z,100236.06
2022-11-10T02:52:26.785Z,100257.69
2022-11-10T02:53:06.750Z,100258.25
2022-11-10T02:53:46.803Z,100262.50
2022-11-10T02:54:27.759Z,100257.03
2022-11-10T02:55:07.782Z,100258.53
2022-11-10T02:55:48.756Z,100254.31
2022-11-10T02:56:28.922Z,100267.91
2022-11-10T02:57:09.762Z,100265.75
2022-11-10T02:57:49.848Z,100261.34
2022-11-10T02:58:29.742Z,100267.63
2022-11-10T02:59:09.772Z,100264.91
2022-11-10T02:59:49.724Z,100267.34
2022-11-10T03:00:29.771Z,100256.38
2022-11-10T03:01:12.764Z,100264.38
2022-11-10T03:01:52.794Z,100268.16
2022-11-10T03:02:33.738Z,100264.19
2022-11-10T03:03:13.793Z,100263.19
2022-11-10T03:03:53.760Z,100257.34
2022-11-10T03:04:33.921Z,100271.06
2022-11-10T03:05:14.739Z,100255.94
2022-11-10T03:05:54.855Z,100272.63
2022-11-10T03:06:35.795Z,100269.91
2022-11-10T03:07:15.862Z,100265.59
2022-11-10T03:08:05.732Z,100269.53
2022-11-10T03:08:45.824Z,100273.56
2022-11-10T03:09:26.773Z,100262.72
2022-11-10T03:10:06.788Z,100259.56
2022-11-10T03:10:46.723Z,100262.28
2022-11-10T03:11:31.848Z,100263.28
2022-11-10T03:12:13.710Z,100266.19
2022-11-10T03:12:55.443Z,100262.75
2022-11-10T03:13:58.894Z,100263.94
2022-11-10T03:14:44.736Z,100272.06
2022-11-10T03:15:39.746Z,100285.28
2022-11-10T03:16:33.753Z,100270.41
2022-11-10T03:17:27.726Z,100272.59
2022-11-10T03:18:21.717Z,100278.44
2022-11-10T03:19:15.717Z,100275.81
2022-11-10T03:20:02.737Z,100289.44
2022-11-10T03:20:36.816Z,100280.47
2022-11-10T03:21:23.732Z,100285.91
2022-11-10T03:21:57.773Z,100294.75
2022-11-10T03:22:44.721Z,100279.75
2022-11-10T03:23:18.828Z,100275.88
2022-11-10T03:24:05.715Z,100271.38
2022-11-10T03:24:39.763Z,100287.91
2022-11-10T03:25:26.724Z,100283.75
2022-11-10T03:26:00.740Z,100280.03
2022-11-10T03:26:48.707Z,100272.31
2022-11-10T03:27:22.751Z,100285.59
2022-11-10T03:28:09.725Z,100264.50
2022-11-10T03:28:43.764Z,100288.44
2022-11-10T03:29:30.729Z,100293.84
2022-11-10T03:30:04.765Z,100282.44
2022-11-10T03:30:51.731Z,100283.91
2022-11-10T03:31:25.781Z,100295.03
2022-11-10T03:32:12.717Z,100277.88
2022-11-10T03:32:46.753Z,100297.47
2022-11-10T03:33:33.700Z,100288.69
2022-11-10T03:34:07.732Z,100282.78
2022-11-10T03:34:54.717Z,100291.31
2022-11-10T03:35:28.807Z,100292.22
2022-11-10T03:36:16.771Z,100299.63
2022-11-10T03:36:50.851Z,100302.03
2022-11-10T03:37:37.741Z,100305.56
2022-11-10T03:38:11.882Z,100291.59
2022-11-10T03:38:58.697Z,100306.44
2022-11-10T03:39:32.735Z,100300.16
2022-11-10T03:40:19.687Z,100302.59
2022-11-10T03:41:53.723Z,100299.13
2022-11-10T03:42:33.761Z,100308.81
2022-11-10T03:43:13.711Z,100303.88
2022-11-10T03:43:54.760Z,100301.03
2022-11-10T03:44:35.696Z,100305.84
2022-11-10T03:45:18.046Z,100310.69
2022-11-10T03:45:57.689Z,100300.72
2022-11-10T03:46:40.532Z,100301.63
2022-11-10T03:47:22.730Z,100308.44
2022-11-10T03:48:02.780Z,100312.44
2022-11-10T03:48:47.390Z,100314.09
2022-11-10T03:49:30.752Z,100291.59
2022-11-10T03:50:12.678Z,100306.13
2022-11-10T03:50:52.756Z,100317.41
2022-11-10T03:51:32.684Z,100307.13
2022-11-10T03:52:12.725Z,100295.53
2022-11-10T03:52:53.682Z,100315.34
2022-11-10T03:53:33.745Z,100312.63
2022-11-10T03:54:13.701Z,100306.13
2022-11-10T03:54:53.789Z,100311.25
2022-11-10T03:55:34.710Z,100318.34
2022-11-10T03:56:14.734Z,100312.78
2022-11-10T03:56:55.699Z,100314.78
2022-11-10T03:57:35.771Z,100328.28
2022-11-10T03:58:15.692Z,100310.06
2022-11-10T03:58:55.705Z,100326.13
2022-11-10T03:59:35.672Z,100320.44
2022-11-10T04:00:17.748Z,100313.72
2022-11-10T04:01:00.683Z,100321.69
2022-11-10T04:01:40.976Z,100309.91
2022-11-10T04:02:20.676Z,100326.31
2022-11-10T04:03:00.730Z,100314.03
2022-11-10T04:03:41.697Z,100314.50
2022-11-10T04:04:40.514Z,100323.16
2022-11-10T04:05:39.664Z,100319.91
2022-11-10T04:06:38.577Z,100314.34
2022-11-10T04:07:40.688Z,100313.50
2022-11-10T04:08:48.697Z,100307.97
2022-11-10T04:09:42.685Z,100311.94
2022-11-10T04:10:36.679Z,100306.66
2022-11-10T04:11:48.661Z,100286.28
2022-11-10T04:13:00.651Z,100305.84
2022-11-10T04:14:12.695Z,100297.88
2022-11-10T04:15:24.686Z,100301.03
2022-11-10T04:16:18.708Z,100307.03
2022-11-10T04:17:13.658Z,100301.06
2022-11-10T04:18:25.658Z,100291.66
2022-11-10T04:19:19.666Z,100290.06
2022-11-10T04:20:13.687Z,100294.47
2022-11-10T04:21:12.680Z,100304.41
2022-11-10T04:22:06.669Z,100300.25
2022-11-10T04:23:18.953Z,100300.97
2022-11-10T04:24:12.650Z,100290.69
2022-11-10T04:24:52.673Z,100307.16
2022-11-10T04:25:52.828Z,100309.00
2022-11-10T04:26:35.674Z,100308.28
2022-11-10T04:27:15.894Z,100310.69
2022-11-10T04:27:56.669Z,100302.38
2022-11-10T04:28:36.748Z,100304.13
2022-11-10T04:29:18.654Z,100300.13
2022-11-10T04:30:05.739Z,100311.69
2022-11-10T04:30:59.644Z,100317.25
2022-11-10T04:31:54.646Z,100316.25
2022-11-10T04:32:48.645Z,100311.00
2022-11-10T04:33:42.667Z,100315.16
2022-11-10T04:34:36.660Z,100315.53
2022-11-10T04:35:23.685Z,100320.09
2022-11-10T04:35:57.721Z,100319.25
2022-11-10T04:36:47.649Z,100303.97
2022-11-10T04:37:21.703Z,100316.09
2022-11-10T04:38:08.640Z,100315.16
2022-11-10T04:38:42.789Z,100317.84
2022-11-10T04:39:29.679Z,100320.97
2022-11-10T04:40:03.912Z,100324.69
2022-11-10T04:40:43.687Z,100316.97
2022-11-10T04:41:24.675Z,100327.25
2022-11-10T04:42:04.644Z,100325.69
2022-11-10T04:42:46.683Z,100329.38
2022-11-10T04:43:26.638Z,100325.69
2022-11-10T04:44:07.672Z,100334.38
2022-11-10T04:44:47.627Z,100324.53
2022-11-10T04:45:27.686Z,100326.44
2022-11-10T04:46:08.674Z,100319.03
2022-11-10T04:46:49.472Z,100322.56
2022-11-10T04:47:29.646Z,100326.84
2022-11-10T04:48:09.881Z,100328.53
2022-11-10T04:48:49.649Z,100330.13
2022-11-10T04:49:29.704Z,100321.16
2022-11-10T04:50:10.637Z,100325.84
2022-11-10T04:50:50.708Z,100335.69
2022-11-10T04:51:39.732Z,100331.59
2022-11-10T04:52:19.720Z,100328.53
2022-11-10T04:52:59.636Z,100332.28
2022-11-10T04:53:40.715Z,100326.28
2022-11-10T04:54:20.641Z,100339.41
2022-11-10T04:55:00.683Z,100348.38
2022-11-10T04:55:41.641Z,100344.13
2022-11-10T04:56:23.679Z,100336.41
2022-11-10T04:57:03.649Z,100341.81
2022-11-10T04:57:43.680Z,100334.84
2022-11-10T04:58:23.616Z,100339.25
2022-11-10T04:59:03.684Z,100323.50
2022-11-10T04:59:43.636Z,100332.09
2022-11-10T05:00:24.695Z,100344.13
2022-11-10T05:01:04.732Z,100334.56
2022-11-10T05:01:44.684Z,100338.84
2022-11-10T05:02:24.651Z,100344.69
2022-11-10T05:03:08.701Z,100342.63
2022-11-10T05:03:49.609Z,100348.69
2022-11-10T05:04:29.647Z,100344.25
2022-11-10T05:05:10.609Z,100347.81
2022-11-10T05:05:50.723Z,100349.34
2022-11-10T05:06:30.666Z,100347.91
2022-11-10T05:07:10.766Z,100348.78
2022-11-10T05:07:54.645Z,100352.72
2022-11-10T05:08:34.667Z,100353.19
2022-11-10T05:09:14.612Z,100360.03
2022-11-10T05:10:08.628Z,100356.13
2022-11-10T05:11:02.624Z,100363.69
2022-11-10T05:11:56.600Z,100342.69
2022-11-10T05:12:50.616Z,100366.41
2022-11-10T05:13:30.648Z,100370.25
2022-11-10T05:14:10.683Z,100367.09
2022-11-10T05:14:50.613Z,100364.53
2022-11-10T05:15:31.913Z,100362.53
2022-11-10T05:16:12.599Z,100369.66
2022-11-10T05:16:52.746Z,100350.09
2022-11-10T05:17:32.596Z,100346.53
2022-11-10T05:18:12.668Z,100377.34
2022-11-10T05:18:52.639Z,100369.94
2022-11-10T05:19:32.666Z,100364.00
2022-11-10T05:20:13.615Z,100355.44
2022-11-10T05:20:53.648Z,100365.16
2022-11-10T05:21:34.606Z,100365.16
2022-11-10T05:22:14.663Z,100376.19
2022-11-10T05:23:15.602Z,100375.44
2022-11-10T05:24:02.626Z,100383.69
2022-11-10T05:24:56.593Z,100381.53
2022-11-10T05:25:53.621Z,100377.06
2022-11-10T05:26:47.608Z,100381.41
2022-11-10T05:27:41.609Z,100373.44
2022-11-10T05:28:35.609Z,100376.53
2022-11-10T05:29:22.620Z,100389.59
2022-11-10T05:29:56.835Z,100389.91
2022-11-10T05:30:44.580Z,100401.06
2022-11-10T05:31:19.626Z,100392.69
2022-11-10T05:32:06.610Z,100379.16
2022-11-10T05:32:40.674Z,100390.97
2022-11-10T05:33:27.606Z,100402.50
2022-11-10T05:34:01.642Z,100397.63
2022-11-10T05:34:41.614Z,100400.09
2022-11-10T05:35:21.651Z,100399.88
2022-11-10T05:36:01.590Z,100399.16
2022-11-10T05:36:41.631Z,100393.94
2022-11-10T05:37:22.576Z,100399.34
2022-11-10T05:38:02.711Z,100406.75
2022-11-10T05:38:43.919Z,100407.91
2022-11-10T05:39:24.706Z,100409.22
2022-11-10T05:40:04.607Z,100396.53
2022-11-10T05:40:44.642Z,100407.38
2022-11-10T05:41:24.596Z,100409.75
2022-11-10T05:42:04.641Z,100412.63
2022-11-10T05:42:59.573Z,100398.78
2022-11-10T05:43:39.673Z,100415.84
2022-11-10T05:44:19.568Z,100409.28
2022-11-10T05:44:59.647Z,100413.53
2022-11-10T05:45:39.628Z,100408.75
2022-11-10T05:46:19.633Z,100410.44
2022-11-10T05:46:59.589Z,100411.00
2022-11-10T05:47:42.609Z,100417.03
2022-11-10T05:48:23.574Z,100413.00
2022-11-10T05:49:03.715Z,100416.09
2022-11-10T05:49:43.592Z,100426.06
2022-11-10T05:50:24.667Z,100423.91
2022-11-10T05:51:04.602Z,100418.09
2022-11-10T05:51:44.628Z,100401.22
2022-11-10T05:52:24.580Z,100420.34
2022-11-10T05:53:04.627Z,100426.94
2022-11-10T05:53:45.572Z,100422.38
2022-11-10T05:54:25.616Z,100427.47
2022-11-10T05:55:05.580Z,100421.19
2022-11-10T05:55:45.828Z,100422.72
2022-11-10T05:56:25.611Z,100440.44
2022-11-10T05:57:05.613Z,100434.03
2022-11-10T05:57:49.575Z,100439.22
2022-11-10T05:58:29.715Z,100433.78
2022-11-10T05:59:10.588Z,100432.94
2022-11-10T05:59:50.648Z,100435.50
2022-11-10T06:00:34.560Z,100440.91
2022-11-10T06:01:14.618Z,100431.78
2022-11-10T06:01:54.581Z,100437.44
2022-11-10T06:02:34.600Z,100444.88
2022-11-10T06:03:22.789Z,100451.16
2022-11-10T06:04:03.660Z,100433.41
2022-11-10T06:04:44.584Z,100449.97
2022-11-10T06:05:30.649Z,100455.78
2022-11-10T06:06:12.597Z,100451.88
2022-11-10T06:06:52.648Z,100448.78
2022-11-10T06:07:32.587Z,100442.75
2022-11-10T06:08:13.655Z,100465.34
2022-11-10T06:08:53.562Z,100456.75
2022-11-10T06:09:33.677Z,100461.91
2022-11-10T06:10:14.546Z,100462.16
2022-11-10T06:10:54.706Z,100459.00
2022-11-10T06:11:34.580Z,100461.69
2022-11-10T06:12:14.667Z,100467.03
2022-11-10T06:12:54.593Z,100443.03
2022-11-10T06:13:34.756Z,100458.53
2022-11-10T06:14:14.569Z,100467.91
2022-11-10T06:14:54.614Z,100468.09
2022-11-10T06:15:35.559Z,100463.75
2022-11-10T06:16:15.628Z,100452.63
2022-11-10T06:16:55.543Z,100458.50
2022-11-10T06:17:35.692Z,100466.06
2022-11-10T06:18:16.595Z,100465.19
2022-11-10T06:18:56.599Z,100460.66
2022-11-10T06:19:37.563Z,100461.69
2022-11-10T06:20:18.654Z,100472.28
2022-11-10T06:20:59.557Z,100475.16
2022-11-10T06:21:39.598Z,100473.97
2022-11-10T06:22:19.542Z,100465.25
2022-11-10T06:23:15.620Z,100481.31
2022-11-10T06:23:55.592Z,100480.47
2022-11-10T06:24:35.593Z,100476.63
2022-11-10T06:25:17.547Z,100488.69
2022-11-10T06:25:57.613Z,100485.06
2022-11-10T06:26:38.536Z,100485.91
2022-11-10T06:27:18.612Z,100477.47
2022-11-10T06:27:59.523Z,100481.97
2022-11-10T06:28:39.589Z,100477.25
2022-11-10T06:29:25.524Z,100480.72
2022-11-10T06:30:06.656Z,100486.78
2022-11-10T06:30:47.565Z,100496.72
2022-11-10T06:31:27.981Z,100494.03
2022-11-10T06:32:08.535Z,100494.78
2022-11-10T06:32:51.603Z,100504.28
2022-11-10T06:33:31.531Z,100494.88
2022-11-10T06:34:11.575Z,100486.06
2022-11-10T06:34:52.847Z,100502.81
2022-11-10T06:35:36.566Z,100502.16
2022-11-10T06:36:17.530Z,100496.03
2022-11-10T06:36:57.608Z,100493.31
2022-11-10T06:37:37.547Z,100502.75
2022-11-10T06:38:18.587Z,100499.59
2022-11-10T06:38:58.682Z,100501.91
2022-11-10T06:39:38.585Z,100503.34
2022-11-10T06:40:22.570Z,100504.31
2022-11-10T06:41:02.562Z,100505.91
2022-11-10T06:41:43.530Z,100503.59
2022-11-10T06:42:23.590Z,100502.16
2022-11-10T06:43:04.521Z,100519.66
2022-11-10T06:43:44.619Z,100511.25
2022-11-10T06:44:24.546Z,100508.78
2022-11-10T06:45:04.933Z,100514.19
2022-11-10T06:45:44.595Z,100502.69
2022-11-10T06:46:24.638Z,100518.38
2022-11-10T06:47:05.521Z,100510.78
2022-11-10T06:47:45.644Z,100514.81
2022-11-10T06:48:26.539Z,100526.09
2022-11-10T06:49:06.612Z,100521.50
2022-11-10T06:49:47.552Z,100526.72
2022-11-10T06:50:28.669Z,100527.81
2022-11-10T06:51:10.558Z,100518.91
2022-11-10T06:51:50.591Z,100525.25
2022-11-10T06:52:31.517Z,100518.66
2022-11-10T06:53:13.472Z,100528.66
2022-11-10T06:53:54.516Z,100531.00
2022-11-10T06:54:34.713Z,100530.66
2022-11-10T06:55:16.567Z,100533.38
2022-11-10T06:55:57.638Z,100534.84
2022-11-10T06:56:41.564Z,100534.22
2022-11-10T06:57:21.588Z,100531.84
2022-11-10T06:58:01.523Z,100544.63
2022-11-10T06:58:41.562Z,100538.75
2022-11-10T06:59:21.512Z,100534.19
2022-11-10T07:00:01.868Z,100538.81
2022-11-10T07:00:41.567Z,100536.50
2022-11-10T07:01:26.522Z,100539.41
2022-11-10T07:02:07.551Z,100535.03
2022-11-10T07:02:47.613Z,100550.50
2022-11-10T07:03:28.524Z,100549.03
2022-11-10T07:04:25.366Z,100555.97
2022-11-10T07:05:06.527Z,100555.84
2022-11-10T07:05:48.013Z,100544.66
2022-11-10T07:06:28.515Z,100544.00
2022-11-10T07:07:15.660Z,100551.06
2022-11-10T07:08:09.506Z,100538.84
2022-11-10T07:09:03.499Z,100543.16
2022-11-10T07:09:58.886Z,100538.59
2022-11-10T07:10:54.543Z,100538.59
2022-11-10T07:11:48.527Z,100549.75
2022-11-10T07:12:35.519Z,100555.28
2022-11-10T07:13:10.539Z,100557.72
2022-11-10T07:13:57.523Z,100562.47
2022-11-10T07:14:31.550Z,100556.31
2022-11-10T07:15:19.499Z,100565.13
2022-11-10T07:15:53.877Z,100563.91
2022-11-10T07:16:40.522Z,100569.31
2022-11-10T07:17:14.628Z,100557.09
2022-11-10T07:17:55.535Z,100566.22
2022-11-10T07:18:35.630Z,100563.66
2022-11-10T07:19:15.507Z,100547.00
2022-11-10T07:19:57.601Z,100551.66
2022-11-10T07:20:38.496Z,100570.53
2022-11-10T07:21:18.576Z,100548.41
2022-11-10T07:21:58.479Z,100567.06
2022-11-10T07:22:52.505Z,100554.31
2022-11-10T07:23:33.520Z,100565.69
2022-11-10T07:24:14.585Z,100579.41
2022-11-10T07:24:54.495Z,100577.84
2022-11-10T07:25:36.564Z,100577.03
2022-11-10T07:26:17.498Z,100579.47
2022-11-10T07:26:59.591Z,100568.91
2022-11-10T07:27:40.485Z,100571.34
2022-11-10T07:28:23.430Z,100577.50
2022-11-10T07:29:08.528Z,100578.81
2022-11-10T07:29:48.551Z,100577.50
2022-11-10T07:30:29.486Z,100587.06
2022-11-10T07:31:11.836Z,100580.69
2022-11-10T07:31:52.489Z,100591.22
2022-11-10T07:32:32.847Z,100592.31
2022-11-10T07:33:18.581Z,100582.31
2022-11-10T07:33:59.669Z,100577.56
2022-11-10T07:34:41.485Z,100593.50
2022-11-10T07:35:23.629Z,100594.63
2022-11-10T07:36:06.488Z,100595.09
2022-11-10T07:36:46.530Z,100580.72
2022-11-10T07:37:26.488Z,100594.75
2022-11-10T07:38:14.722Z,100599.25
2022-11-10T07:38:55.481Z,100595.22
2022-11-10T07:39:35.596Z,100595.25
2022-11-10T07:40:16.510Z,100597.22
2022-11-10T07:40:59.578Z,100603.59
2022-11-10T07:41:39.461Z,100592.16
2022-11-10T07:42:19.539Z,100601.41
2022-11-10T07:43:00.491Z,100603.34
2022-11-10T07:43:40.529Z,100619.34
2022-11-10T07:44:20.468Z,100596.97
2022-11-10T07:45:00.535Z,100602.63
2022-11-10T07:45:40.519Z,100604.50
2022-11-10T07:46:20.528Z,100611.22
2022-11-10T07:47:00.455Z,100601.66
2022-11-10T07:47:41.505Z,100603.50
2022-11-10T07:48:22.476Z,100610.63
2022-11-10T07:49:02.584Z,100601.47
2022-11-10T07:49:43.471Z,100610.28
2022-11-10T07:50:24.520Z,100610.78
2022-11-10T07:51:04.531Z,100627.75
2022-11-10T07:51:44.522Z,100615.06
2022-11-10T07:52:24.489Z,100620.13
2022-11-10T07:53:16.527Z,100619.88
2022-11-10T07:53:57.448Z,100628.47
2022-11-10T07:54:37.571Z,100622.44
2022-11-10T07:55:17.484Z,100619.03
2022-11-10T07:55:57.526Z,100623.31
2022-11-10T07:56:37.478Z,100611.78
2022-11-10T07:57:17.529Z,100625.50
2022-11-10T07:57:57.472Z,100634.22
2022-11-10T07:58:37.729Z,100631.25
2022-11-10T07:59:18.440Z,100627.19
2022-11-10T07:59:58.589Z,100641.69
2022-11-10T08:00:39.439Z,100625.03
2022-11-10T08:01:19.562Z,100638.66
2022-11-10T08:01:59.503Z,100640.03
2022-11-10T08:02:40.342Z,100642.88
2022-11-10T08:03:24.814Z,100642.38
2022-11-10T08:04:05.571Z,100642.00
2022-11-10T08:04:45.447Z,100638.78
2022-11-10T08:05:26.569Z,100648.63
2022-11-10T08:06:08.460Z,100636.09
2022-11-10T08:06:49.513Z,100647.78
2022-11-10T08:07:30.560Z,100647.91
2022-11-10T08:08:11.534Z,100633.16
2022-11-10T08:08:55.463Z,100646.44
2022-11-10T08:09:35.497Z,100657.09
2022-11-10T08:10:16.502Z,100644.34
2022-11-10T08:10:56.488Z,100653.06
2022-11-10T08:11:36.438Z,100651.84
2022-11-10T08:12:16.500Z,100641.88
2022-11-10T08:13:08.465Z,100640.41